createdAt,value
2023-02-19T00:00:02.018Z,8.10
2023-02-19T00:02:30.505Z,7.30
2023-02-19T00:04:59.858Z,8.20
2023-02-19T00:07:28.284Z,8.40
2023-02-19T00:09:56.726Z,8.60
2023-02-19T00:12:24.831Z,8.30
2023-02-19T00:14:52.903Z,8.00
2023-02-19T00:17:20.980Z,7.90
2023-02-19T00:19:48.991Z,8.30
2023-02-19T00:22:17.265Z,8.90
2023-02-19T00:24:46.489Z,9.10
2023-02-19T00:27:16.380Z,9.20
2023-02-19T00:29:45.175Z,8.70
2023-02-19T00:32:13.474Z,7.70
2023-02-19T00:34:41.782Z,9.00
2023-02-19T00:37:10.058Z,8.50
2023-02-19T00:39:38.593Z,8.30
2023-02-19T00:42:06.816Z,9.00
2023-02-19T00:44:35.315Z,7.50
2023-02-19T00:47:03.754Z,8.60
2023-02-19T00:49:32.304Z,7.70
2023-02-19T00:52:00.758Z,8.40
2023-02-19T00:54:29.030Z,7.10
2023-02-19T00:56:57.305Z,8.30
2023-02-19T00:59:25.679Z,8.40
2023-02-19T01:01:53.955Z,7.80
2023-02-19T01:04:22.111Z,8.00
2023-02-19T01:06:50.377Z,7.80
2023-02-19T01:09:18.586Z,8.10
2023-02-19T01:11:46.712Z,8.60
2023-02-19T01:14:15.001Z,7.80
2023-02-19T01:16:43.238Z,8.30
2023-02-19T01:19:13.143Z,8.60
2023-02-19T01:21:42.013Z,7.80
2023-02-19T01:24:11.269Z,7.70
2023-02-19T01:26:43.512Z,6.80
2023-02-19T01:29:11.760Z,7.40
2023-02-19T01:31:42.401Z,6.90
2023-02-19T01:34:12.966Z,7.70
2023-02-19T01:36:44.371Z,7.30
2023-02-19T01:39:12.797Z,7.30
2023-02-19T01:41:47.765Z,7.30
2023-02-19T01:44:19.495Z,7.40
2023-02-19T01:46:52.813Z,7.80
2023-02-19T01:49:38.566Z,6.60
2023-02-19T01:52:32.810Z,7.10
2023-02-19T01:55:11.123Z,7.30
2023-02-19T01:57:45.333Z,7.20
2023-02-19T02:00:16.918Z,7.80
2023-02-19T02:02:54.892Z,8.20
2023-02-19T02:05:37.927Z,7.00
2023-02-19T02:08:25.210Z,5.70
2023-02-19T02:10:55.311Z,6.00
2023-02-19T02:13:26.446Z,6.20
2023-02-19T02:16:08.439Z,6.30
2023-02-19T02:19:06.986Z,6.40
2023-02-19T02:21:56.669Z,6.90
2023-02-19T02:25:13.071Z,7.20
2023-02-19T02:27:50.466Z,6.80
2023-02-19T02:30:33.671Z,6.50
2023-02-19T02:33:11.702Z,7.10
2023-02-19T02:35:46.430Z,6.40
2023-02-19T02:38:18.191Z,6.60
2023-02-19T02:40:47.799Z,6.60
2023-02-19T02:43:16.609Z,6.50
2023-02-19T02:45:45.092Z,6.70
2023-02-19T02:48:21.235Z,5.90
2023-02-19T02:50:58.375Z,7.30
2023-02-19T02:53:52.300Z,6.90
2023-02-19T02:56:25.376Z,7.30
2023-02-19T02:58:56.831Z,7.00
2023-02-19T03:01:52.270Z,7.20
2023-02-19T03:04:31.072Z,7.40
2023-02-19T03:07:04.106Z,7.70
2023-02-19T03:09:40.773Z,6.10
2023-02-19T03:12:33.780Z,5.90
2023-02-19T03:15:28.381Z,5.80
2023-02-19T03:18:36.905Z,5.00
2023-02-19T03:21:08.886Z,5.70
2023-02-19T03:23:58.958Z,6.50
2023-02-19T03:26:28.562Z,5.40
2023-02-19T03:29:17.338Z,4.90
2023-02-19T03:31:49.371Z,4.20
2023-02-19T03:34:23.305Z,4.00
2023-02-19T03:37:12.410Z,3.60
2023-02-19T03:39:46.997Z,4.70
2023-02-19T03:42:35.740Z,4.20
2023-02-19T03:45:11.172Z,4.30
2023-02-19T03:47:58.892Z,4.50
2023-02-19T03:50:55.956Z,4.20
2023-02-19T03:53:30.070Z,5.00
2023-02-19T03:56:11.157Z,4.70
2023-02-19T03:58:47.935Z,4.20
2023-02-19T04:01:30.651Z,4.50
2023-02-19T04:04:09.478Z,4.70
2023-02-19T04:06:41.659Z,4.90
2023-02-19T04:09:14.687Z,4.50
2023-02-19T04:11:44.557Z,4.10
2023-02-19T04:14:35.763Z,4.10
2023-02-19T04:17:10.898Z,4.00
2023-02-19T04:19:42.713Z,4.10
2023-02-19T04:22:12.472Z,3.30
2023-02-19T04:24:49.079Z,3.40
2023-02-19T04:27:18.132Z,3.20
2023-02-19T04:29:46.517Z,3.30
2023-02-19T04:32:14.793Z,3.90
2023-02-19T04:34:43.068Z,4.00
2023-02-19T04:37:11.834Z,3.90
2023-02-19T04:39:39.826Z,4.20
2023-02-19T04:42:08.101Z,3.70
2023-02-19T04:44:36.476Z,3.30
2023-02-19T04:47:04.844Z,3.60
2023-02-19T04:49:33.023Z,3.80
2023-02-19T04:52:01.505Z,3.60
2023-02-19T04:54:39.825Z,3.80
2023-02-19T04:57:08.013Z,2.80
2023-02-19T04:59:38.934Z,3.10
2023-02-19T05:02:07.309Z,3.10
2023-02-19T05:04:35.527Z,3.50
2023-02-19T05:07:03.761Z,2.80
2023-02-19T05:09:31.990Z,3.10
2023-02-19T05:12:00.417Z,4.20
2023-02-19T05:14:28.705Z,4.80
2023-02-19T05:16:57.182Z,8.00
2023-02-19T05:19:25.284Z,8.50
2023-02-19T05:21:53.430Z,4.90
2023-02-19T05:24:22.110Z,4.70
2023-02-19T05:26:51.294Z,4.60
2023-02-19T05:29:21.826Z,4.40
2023-02-19T05:31:50.059Z,4.90
2023-02-19T05:34:18.504Z,4.90
2023-02-19T05:36:46.780Z,4.80
2023-02-19T05:39:14.891Z,4.60
2023-02-19T05:41:43.323Z,5.20
2023-02-19T05:44:11.923Z,5.40
2023-02-19T05:46:40.200Z,5.40
2023-02-19T05:49:08.641Z,5.10
2023-02-19T05:51:37.064Z,5.40
2023-02-19T05:54:05.327Z,5.20
2023-02-19T05:56:38.562Z,5.40
2023-02-19T05:59:21.551Z,5.40
2023-02-19T06:01:54.735Z,4.50
2023-02-19T06:04:23.634Z,4.40
2023-02-19T06:06:51.914Z,4.80
2023-02-19T06:09:20.021Z,4.80
2023-02-19T06:11:48.568Z,4.90
2023-02-19T06:14:16.838Z,4.70
2023-02-19T06:16:45.118Z,4.70
2023-02-19T06:19:13.235Z,4.60
2023-02-19T06:21:49.762Z,4.50
2023-02-19T06:24:17.992Z,4.60
2023-02-19T06:26:46.690Z,4.80
2023-02-19T06:29:14.836Z,5.00
2023-02-19T06:31:46.159Z,4.60
2023-02-19T06:34:17.302Z,4.40
2023-02-19T06:36:45.560Z,4.30
2023-02-19T06:39:23.813Z,4.20
2023-02-19T06:41:54.817Z,3.90
2023-02-19T06:44:25.964Z,4.00
2023-02-19T06:46:57.310Z,4.40
2023-02-19T06:49:25.918Z,4.20
2023-02-19T06:51:54.284Z,4.50
2023-02-19T06:54:25.835Z,4.40
2023-02-19T06:56:54.005Z,4.40
2023-02-19T06:59:22.586Z,4.40
2023-02-19T07:01:50.863Z,4.00
2023-02-19T07:04:19.504Z,3.80
2023-02-19T07:06:47.932Z,3.80
2023-02-19T07:09:16.068Z,4.20
2023-02-19T07:11:46.843Z,3.90
2023-02-19T07:14:20.632Z,3.80
2023-02-19T07:16:48.848Z,4.00
2023-02-19T07:19:17.284Z,3.60
2023-02-19T07:21:45.487Z,3.80
2023-02-19T07:24:13.686Z,4.30
2023-02-19T07:26:45.094Z,3.90
2023-02-19T07:29:13.588Z,3.90
2023-02-19T07:31:47.727Z,4.40
2023-02-19T07:34:15.966Z,4.10
2023-02-19T07:36:46.237Z,4.20
2023-02-19T07:39:15.945Z,3.90
2023-02-19T07:41:44.078Z,3.60
2023-02-19T07:44:27.101Z,4.40
2023-02-19T07:46:58.144Z,4.10
2023-02-19T07:49:30.718Z,3.80
2023-02-19T07:51:58.997Z,3.90
2023-02-19T07:54:27.368Z,4.10
2023-02-19T07:56:56.034Z,3.40
2023-02-19T07:59:24.131Z,3.30
2023-02-19T08:02:11.154Z,3.40
2023-02-19T08:04:39.738Z,3.50
2023-02-19T08:07:07.891Z,3.50
2023-02-19T08:09:36.183Z,3.50
2023-02-19T08:12:22.957Z,3.30
2023-02-19T08:14:51.046Z,3.40
2023-02-19T08:17:19.261Z,3.60
2023-02-19T08:19:47.347Z,3.60
2023-02-19T08:22:16.506Z,3.50
2023-02-19T08:27:13.808Z,3.20
2023-02-19T08:29:42.089Z,3.90
2023-02-19T08:32:10.504Z,3.90
2023-02-19T08:34:38.742Z,4.40
2023-02-19T08:37:06.715Z,3.90
2023-02-19T08:39:34.882Z,3.50
2023-02-19T08:42:03.329Z,3.60
2023-02-19T08:44:33.426Z,3.30
2023-02-19T08:47:02.581Z,3.70
2023-02-19T08:49:30.909Z,3.50
2023-02-19T08:51:59.238Z,3.50
2023-02-19T08:56:55.219Z,3.60
2023-02-19T08:59:24.008Z,3.30
2023-02-19T09:01:53.377Z,3.60
2023-02-19T09:04:21.505Z,3.20
2023-02-19T09:06:49.710Z,3.30
2023-02-19T09:09:18.004Z,3.20
2023-02-19T09:11:49.061Z,3.50
2023-02-19T09:14:17.798Z,3.50
2023-02-19T09:16:48.154Z,3.30
2023-02-19T09:19:16.525Z,3.60
2023-02-19T09:21:45.005Z,3.20
2023-02-19T09:24:13.599Z,3.10
2023-02-19T09:26:41.769Z,2.40
2023-02-19T09:29:10.046Z,2.10
2023-02-19T09:31:38.457Z,1.80
2023-02-19T09:34:06.767Z,1.90
2023-02-19T09:36:34.871Z,2.10
2023-02-19T09:39:04.695Z,1.90
2023-02-19T09:41:37.100Z,1.80
2023-02-19T09:44:09.733Z,1.90
2023-02-19T09:46:53.177Z,1.70
2023-02-19T09:49:27.197Z,1.90
2023-02-19T09:51:58.850Z,1.80
2023-02-19T09:54:30.714Z,1.70
2023-02-19T09:57:02.286Z,1.80
2023-02-19T09:59:48.243Z,1.60
2023-02-19T10:02:22.268Z,1.70
2023-02-19T10:04:52.285Z,1.70
2023-02-19T10:07:24.193Z,1.60
2023-02-19T10:10:21.490Z,1.80
2023-02-19T10:12:55.995Z,1.80
2023-02-19T10:15:27.367Z,1.90
2023-02-19T10:17:55.795Z,1.60
2023-02-19T10:20:27.948Z,1.70
2023-02-19T10:23:06.502Z,1.30
2023-02-19T10:25:35.732Z,1.30
2023-02-19T10:28:05.140Z,1.40
2023-02-19T10:30:36.076Z,1.30
2023-02-19T10:33:12.710Z,1.50
2023-02-19T10:36:03.656Z,1.20
2023-02-19T10:38:35.406Z,1.20
2023-02-19T10:41:18.536Z,1.30
2023-02-19T10:44:13.722Z,1.40
2023-02-19T10:46:48.978Z,1.20
2023-02-19T10:49:30.881Z,1.40
2023-02-19T10:52:17.746Z,1.00
2023-02-19T10:54:50.472Z,1.50
2023-02-19T10:57:18.649Z,1.10
2023-02-19T11:00:10.987Z,1.00
2023-02-19T11:02:39.075Z,0.90
2023-02-19T11:05:16.410Z,1.20
2023-02-19T11:07:54.689Z,1.50
2023-02-19T11:10:30.387Z,1.30
2023-02-19T11:13:02.410Z,1.30
2023-02-19T11:15:36.117Z,1.60
2023-02-19T11:18:08.148Z,1.80
2023-02-19T11:20:36.187Z,1.60
2023-02-19T11:23:15.470Z,1.20
2023-02-19T11:25:48.826Z,1.30
2023-02-19T11:28:16.922Z,1.70
2023-02-19T11:30:47.214Z,1.60
2023-02-19T11:33:24.807Z,1.80
2023-02-19T11:36:11.956Z,1.60
2023-02-19T11:38:40.032Z,1.80
2023-02-19T11:41:49.731Z,1.30
2023-02-19T11:44:35.479Z,1.60
2023-02-19T11:47:32.520Z,1.50
2023-02-19T11:50:15.955Z,1.50
2023-02-19T11:53:28.885Z,1.50
2023-02-19T11:56:09.166Z,1.50
2023-02-19T11:59:01.078Z,1.50
2023-02-19T12:01:51.395Z,1.50
2023-02-19T12:04:38.168Z,1.40
2023-02-19T12:07:16.899Z,1.50
2023-02-19T12:09:55.265Z,1.30
2023-02-19T12:12:52.379Z,3.40
2023-02-19T12:15:44.089Z,1.00
2023-02-19T12:18:30.486Z,0.90
2023-02-19T12:21:12.850Z,0.90
2023-02-19T12:23:59.289Z,0.80
2023-02-19T12:26:59.442Z,1.20
2023-02-19T12:29:30.259Z,1.70
2023-02-19T12:32:21.668Z,1.90
2023-02-19T12:34:52.402Z,1.20
2023-02-19T12:37:41.672Z,1.30
2023-02-19T12:40:33.715Z,1.50
2023-02-19T12:43:19.636Z,0.80
2023-02-19T12:46:00.381Z,0.90
2023-02-19T12:48:31.956Z,1.10
2023-02-19T12:51:30.454Z,0.70
2023-02-19T12:54:06.874Z,0.70
2023-02-19T12:56:42.284Z,0.90
2023-02-19T12:59:23.705Z,1.00
2023-02-19T13:01:58.301Z,1.10
2023-02-19T13:04:37.473Z,1.20
2023-02-19T13:07:21.818Z,1.00
2023-02-19T13:10:00.853Z,0.70
2023-02-19T13:12:30.775Z,0.80
2023-02-19T13:15:09.973Z,0.90
2023-02-19T13:20:19.009Z,0.70
2023-02-19T13:23:20.295Z,0.70
2023-02-19T13:26:08.335Z,1.10
2023-02-19T13:29:20.245Z,0.70
2023-02-19T13:32:36.512Z,1.10
2023-02-19T13:35:11.633Z,1.80
2023-02-19T13:37:40.900Z,2.00
2023-02-19T13:40:43.152Z,1.50
2023-02-19T13:43:43.063Z,2.60
2023-02-19T13:46:16.587Z,0.90
2023-02-19T13:48:45.597Z,0.90
2023-02-19T13:51:21.616Z,6.50
2023-02-19T13:53:56.047Z,2.60
2023-02-19T13:56:31.460Z,1.20
2023-02-19T13:59:23.523Z,0.90
2023-02-19T14:01:52.215Z,0.90
2023-02-19T14:04:22.877Z,1.80
2023-02-19T14:07:03.605Z,4.00
2023-02-19T14:09:37.838Z,1.40
2023-02-19T14:12:18.087Z,2.50
2023-02-19T14:14:54.297Z,2.10
2023-02-19T14:17:45.892Z,2.40
2023-02-19T14:20:17.115Z,7.80
2023-02-19T14:22:50.131Z,1.10
2023-02-19T14:25:27.733Z,1.10
2023-02-19T14:28:24.256Z,2.10
2023-02-19T14:30:53.652Z,2.50
2023-02-19T14:36:07.399Z,1.70
2023-02-19T14:38:47.140Z,1.50
2023-02-19T14:41:17.329Z,1.40
2023-02-19T14:43:49.043Z,2.60
2023-02-19T14:46:38.038Z,5.10
2023-02-19T14:51:51.431Z,1.60
2023-02-19T14:54:38.143Z,1.90
2023-02-19T14:57:13.774Z,2.00
2023-02-19T14:59:53.578Z,1.70
2023-02-19T15:02:24.109Z,2.10
2023-02-19T15:04:53.696Z,1.60
2023-02-19T15:07:25.435Z,6.70
2023-02-19T15:10:03.677Z,2.40
2023-02-19T15:12:47.690Z,1.80
2023-02-19T15:15:22.212Z,1.90
2023-02-19T15:17:52.739Z,1.80
2023-02-19T15:20:24.705Z,1.50
2023-02-19T15:22:55.096Z,1.50
2023-02-19T15:25:27.110Z,1.40
2023-02-19T15:27:55.427Z,1.60
2023-02-19T15:30:29.646Z,1.40
2023-02-19T15:33:00.156Z,1.60
2023-02-19T15:35:30.671Z,1.80
2023-02-19T15:37:58.936Z,1.90
2023-02-19T15:40:32.561Z,1.70
2023-02-19T15:43:01.434Z,10.80
2023-02-19T15:45:37.891Z,4.70
2023-02-19T15:48:18.663Z,3.00
2023-02-19T15:50:52.256Z,2.80
2023-02-19T15:53:29.805Z,5.40
2023-02-19T15:56:09.815Z,2.80
2023-02-19T15:58:38.178Z,2.40
2023-02-19T16:01:15.420Z,2.40
2023-02-19T16:03:43.746Z,5.20
2023-02-19T16:06:15.141Z,4.10
2023-02-19T16:09:06.931Z,1.90
2023-02-19T16:11:59.089Z,1.70
2023-02-19T16:14:27.129Z,2.00
2023-02-19T16:16:57.158Z,1.60
2023-02-19T16:19:28.673Z,2.70
2023-02-19T16:21:58.454Z,1.80
2023-02-19T16:24:31.309Z,1.80
2023-02-19T16:27:04.212Z,1.80
2023-02-19T16:29:36.064Z,4.70
2023-02-19T16:32:07.541Z,4.20
2023-02-19T16:34:43.400Z,2.60
2023-02-19T16:37:41.199Z,2.60
2023-02-19T16:40:09.343Z,2.10
2023-02-19T16:43:06.294Z,2.40
2023-02-19T16:45:34.313Z,1.90
2023-02-19T16:48:03.748Z,2.50
2023-02-19T16:50:31.981Z,2.30
2023-02-19T16:53:02.348Z,2.10
2023-02-19T16:55:32.658Z,2.20
2023-02-19T16:58:01.302Z,2.40
2023-02-19T17:00:31.845Z,2.50
2023-02-19T17:03:08.945Z,2.40
2023-02-19T17:05:39.323Z,2.50
2023-02-19T17:08:46.216Z,2.40
2023-02-19T17:11:16.916Z,2.40
2023-02-19T17:13:46.805Z,3.00
2023-02-19T17:16:27.346Z,3.80
2023-02-19T17:18:56.194Z,2.50
2023-02-19T17:21:30.273Z,3.20
2023-02-19T17:23:58.608Z,2.80
2023-02-19T17:26:31.550Z,3.90
2023-02-19T17:29:02.012Z,5.60
2023-02-19T17:31:30.588Z,3.30
2023-02-19T17:34:02.105Z,3.00
2023-02-19T17:36:32.256Z,2.80
2023-02-19T17:39:03.158Z,2.40
2023-02-19T17:41:32.244Z,3.40
2023-02-19T17:44:00.734Z,2.20
2023-02-19T17:46:28.863Z,2.40
2023-02-19T17:49:07.849Z,3.20
2023-02-19T17:51:36.114Z,2.90
2023-02-19T17:54:05.845Z,2.40
2023-02-19T17:56:36.161Z,2.60
2023-02-19T17:59:04.520Z,2.30
2023-02-19T18:01:33.153Z,2.10
2023-02-19T18:04:01.748Z,2.20
2023-02-19T18:06:30.486Z,2.10
2023-02-19T18:08:58.857Z,1.80
2023-02-19T18:11:27.250Z,2.10
2023-02-19T18:13:55.832Z,2.30
2023-02-19T18:16:27.405Z,2.40
2023-02-19T18:18:58.425Z,2.50
2023-02-19T18:21:26.986Z,2.80
2023-02-19T18:23:55.277Z,2.70
2023-02-19T18:26:33.493Z,3.30
2023-02-19T18:29:01.762Z,3.50
2023-02-19T18:31:32.892Z,3.30
2023-02-19T18:34:01.185Z,3.30
2023-02-19T18:36:33.049Z,4.10
2023-02-19T18:39:04.399Z,3.40
2023-02-19T18:41:32.568Z,4.00
2023-02-19T18:44:00.954Z,2.00
2023-02-19T18:46:30.902Z,1.70
2023-02-19T18:49:02.217Z,1.50
2023-02-19T18:51:31.006Z,0.90
2023-02-19T18:54:01.776Z,1.30
2023-02-19T18:56:31.141Z,1.10
2023-02-19T18:59:00.539Z,1.40
2023-02-19T19:01:31.694Z,1.00
2023-02-19T19:04:01.905Z,1.40
2023-02-19T19:06:30.368Z,1.40
2023-02-19T19:08:58.686Z,1.20
2023-02-19T19:11:26.985Z,1.70
2023-02-19T19:13:55.515Z,1.20
2023-02-19T19:16:28.742Z,1.30
2023-02-19T19:18:57.511Z,1.30
2023-02-19T19:21:25.936Z,1.30
2023-02-19T19:23:56.940Z,1.20
2023-02-19T19:26:25.143Z,1.40
2023-02-19T19:28:53.587Z,1.40
2023-02-19T19:31:23.025Z,1.20
2023-02-19T19:36:23.297Z,1.50
2023-02-19T19:38:51.715Z,1.80
2023-02-19T19:41:20.736Z,1.00
2023-02-19T19:43:48.785Z,1.10
2023-02-19T19:46:20.003Z,1.40
2023-02-19T19:48:50.007Z,1.30
2023-02-19T19:51:18.680Z,1.30
2023-02-19T19:53:48.246Z,1.30
2023-02-19T19:56:18.168Z,1.40
2023-02-19T19:58:48.147Z,1.20
2023-02-19T20:01:21.217Z,1.10
2023-02-19T20:03:51.346Z,1.20
2023-02-19T20:06:31.130Z,1.20
2023-02-19T20:09:00.159Z,1.00
2023-02-19T20:11:28.703Z,1.00
2023-02-19T20:13:57.087Z,1.10
2023-02-19T20:16:29.192Z,1.20
2023-02-19T20:18:57.429Z,1.00
2023-02-19T20:21:26.420Z,0.90
2023-02-19T20:23:54.695Z,1.00
2023-02-19T20:26:27.899Z,1.10
2023-02-19T20:28:56.515Z,1.30
2023-02-19T20:31:25.347Z,1.50
2023-02-19T20:33:53.945Z,0.80
2023-02-19T20:36:22.265Z,1.10
2023-02-19T20:38:50.608Z,1.10
2023-02-19T20:41:19.185Z,1.30
2023-02-19T20:43:47.774Z,1.20
2023-02-19T20:46:16.107Z,0.90
2023-02-19T20:48:44.929Z,1.70
2023-02-19T20:51:13.133Z,1.40
2023-02-19T20:53:42.430Z,1.60
2023-02-19T20:56:11.689Z,1.30
2023-02-19T21:01:12.248Z,1.40
2023-02-19T21:03:40.475Z,1.90
2023-02-19T21:06:09.047Z,1.60
2023-02-19T21:08:37.388Z,1.60
2023-02-19T21:11:05.881Z,1.50
2023-02-19T21:13:36.734Z,1.60
2023-02-19T21:16:05.316Z,1.40
2023-02-19T21:18:33.576Z,1.80
2023-02-19T21:21:01.808Z,2.00
2023-02-19T21:23:30.853Z,2.10
2023-02-19T21:26:01.685Z,1.90
2023-02-19T21:28:29.960Z,1.90
2023-02-19T21:30:58.333Z,2.00
2023-02-19T21:33:26.573Z,2.30
2023-02-19T21:35:54.709Z,2.50
2023-02-19T21:38:23.123Z,2.90
2023-02-19T21:40:51.856Z,2.40
2023-02-19T21:43:33.238Z,2.10
2023-02-19T21:46:04.295Z,2.10
2023-02-19T21:48:35.728Z,2.10
2023-02-19T21:51:07.075Z,2.00
2023-02-19T21:53:35.975Z,2.10
2023-02-19T21:56:04.653Z,1.90
2023-02-19T21:58:37.092Z,1.80
2023-02-19T22:01:05.650Z,1.70
2023-02-19T22:03:34.199Z,1.70
2023-02-19T22:06:02.672Z,1.70
2023-02-19T22:08:31.184Z,1.70
2023-02-19T22:11:00.429Z,1.50
2023-02-19T22:13:28.776Z,1.30
2023-02-19T22:15:56.916Z,1.80
2023-02-19T22:18:31.174Z,1.70
2023-02-19T22:21:08.969Z,1.70
2023-02-19T22:23:37.140Z,1.60
2023-02-19T22:26:05.420Z,1.70
2023-02-19T22:28:33.716Z,1.50
2023-02-19T22:31:01.871Z,1.70
2023-02-19T22:33:30.360Z,1.90
2023-02-19T22:35:58.434Z,1.60
2023-02-19T22:38:26.609Z,1.60
2023-02-19T22:40:54.644Z,1.70
2023-02-19T22:43:22.956Z,1.70
2023-02-19T22:45:50.987Z,1.90
2023-02-19T22:48:29.608Z,1.50
2023-02-19T22:53:27.096Z,1.30
2023-02-19T22:55:55.182Z,1.50
2023-02-19T22:58:23.570Z,1.70
2023-02-19T23:00:52.073Z,1.50
2023-02-19T23:03:20.430Z,1.90
2023-02-19T23:05:48.805Z,1.90
2023-02-19T23:08:17.397Z,1.60
2023-02-19T23:10:45.777Z,1.70
2023-02-19T23:13:14.252Z,1.90
2023-02-19T23:15:42.365Z,2.00
2023-02-19T23:18:10.501Z,1.80
2023-02-19T23:20:38.554Z,1.80
2023-02-19T23:23:06.858Z,1.70
2023-02-19T23:25:35.149Z,1.70
2023-02-19T23:28:03.672Z,1.90
2023-02-19T23:30:32.238Z,2.00
2023-02-19T23:33:00.480Z,2.00
2023-02-19T23:35:32.233Z,1.60
2023-02-19T23:38:01.534Z,1.80
2023-02-19T23:42:57.673Z,1.90
2023-02-19T23:45:26.009Z,1.90
2023-02-19T23:47:57.090Z,1.70
2023-02-19T23:50:25.984Z,1.80
2023-02-19T23:52:56.619Z,1.90
2023-02-19T23:55:28.184Z,2.20
2023-02-19T23:57:56.440Z,2.00
